Decoded Metar for KWVI (WATSONVILLE in CA, USA) (IATA:WVI) | Meteo·Mobile Aviation Weather
aviador You're here:

KWVI Decoded Metar

WATSONVILLE in CA, USA
Report Time2018-10-20 11:53:00
UTC Time2018-10-20 12:24:13
Flight Rules vfr VFR
WindCalm
Visibility9999 m
Phenomena:N/A
Clouds:N/A
Expected CloudBase > 800 ft AGL from Temp-Dew spread
CeilingNone
Temp09°C (ISA -6)
Dew Point07°C (87% RH)
AAT8.3°C
QNH1017 hPa
Density Alt-545 ft
Elevation141 ft
Report Wrong Elevation
Raw Report
KWVI 201153Z AUTO 00000KT 10SM CLR 09/07 A3002 RMK AO2 SLP166
T00890067 10117 20078 55004=

Extra information for KWVI:More info

Metar Taf Metar & Taf Last 4 Metars F.Rules Stats Wind Profile Meteogram Temp Stats Airport Information Weather charts Add Link Nearby VenuesMetar ALERT Operation Metar Decoded Social comments

AIRNAV info for KWVI